createdAt,value
2018-01-13T00:00:01.980Z,70.00
2018-01-13T00:01:01.982Z,71.20
2018-01-13T00:02:01.983Z,70.90
2018-01-13T00:03:01.989Z,72.50
2018-01-13T00:04:01.992Z,70.20
2018-01-13T00:05:01.996Z,73.40
2018-01-13T00:06:02.045Z,67.40
2018-01-13T00:07:01.998Z,65.00
2018-01-13T00:08:02.004Z,68.10
2018-01-13T00:09:02.003Z,67.60
2018-01-13T00:10:02.010Z,65.00
2018-01-13T00:11:02.010Z,67.40
2018-01-13T00:12:02.014Z,66.90
2018-01-13T00:13:02.023Z,67.30
2018-01-13T00:14:02.018Z,65.30
2018-01-13T00:15:02.025Z,65.80
2018-01-13T00:16:02.024Z,61.30
2018-01-13T00:17:02.030Z,67.70
2018-01-13T00:18:02.032Z,64.90
2018-01-13T00:19:02.033Z,67.30
2018-01-13T00:20:02.042Z,63.20
2018-01-13T00:21:02.041Z,64.20
2018-01-13T00:22:02.040Z,68.10
2018-01-13T00:23:02.044Z,65.00
2018-01-13T00:24:02.051Z,67.70
2018-01-13T00:25:02.051Z,63.20
2018-01-13T00:26:02.056Z,61.30
2018-01-13T00:27:02.058Z,59.60
2018-01-13T00:28:02.063Z,61.20
2018-01-13T00:29:02.059Z,66.40
2018-01-13T00:30:02.067Z,66.40
2018-01-13T00:31:02.070Z,61.10
2018-01-13T00:32:02.072Z,65.30
2018-01-13T00:33:02.078Z,67.70
2018-01-13T00:34:02.076Z,64.00
2018-01-13T00:35:02.086Z,65.30
2018-01-13T00:36:02.084Z,64.40
2018-01-13T00:37:02.086Z,61.70
2018-01-13T00:38:02.087Z,63.20
2018-01-13T00:39:02.099Z,63.10
2018-01-13T00:40:02.093Z,66.10
2018-01-13T00:41:02.101Z,62.40
2018-01-13T00:42:02.097Z,61.70
2018-01-13T00:43:02.103Z,61.50
2018-01-13T00:44:02.106Z,63.30
2018-01-13T00:45:02.109Z,63.70
2018-01-13T00:46:02.116Z,64.30
2018-01-13T00:47:02.114Z,63.10
2018-01-13T00:48:02.121Z,65.80
2018-01-13T00:49:02.116Z,67.30
2018-01-13T00:50:02.126Z,64.90
2018-01-13T00:51:02.152Z,59.10
2018-01-13T00:52:02.132Z,61.10
2018-01-13T00:53:02.130Z,64.50
2018-01-13T00:54:02.138Z,62.00
2018-01-13T00:55:02.138Z,64.90
2018-01-13T00:56:02.142Z,59.60
2018-01-13T00:57:02.146Z,67.20
2018-01-13T00:58:02.143Z,60.40
2018-01-13T00:59:02.154Z,64.70
2018-01-13T01:00:02.152Z,61.00
2018-01-13T01:01:02.158Z,61.90
2018-01-13T01:02:02.154Z,61.40
2018-01-13T01:03:02.163Z,64.80
2018-01-13T01:04:02.164Z,62.40
2018-01-13T01:05:02.168Z,64.70
2018-01-13T01:06:02.167Z,66.90
2018-01-13T01:07:02.169Z,64.10
2018-01-13T01:08:02.178Z,59.60
2018-01-13T01:09:02.181Z,62.60
2018-01-13T01:10:02.175Z,62.00
2018-01-13T01:11:02.180Z,60.10
2018-01-13T01:12:02.190Z,62.00
2018-01-13T01:13:02.185Z,60.30
2018-01-13T01:14:02.704Z,64.10
2018-01-13T01:15:02.192Z,62.60
2018-01-13T01:16:02.200Z,60.30
2018-01-13T01:17:02.199Z,61.10
2018-01-13T01:18:02.208Z,59.50
2018-01-13T01:19:02.204Z,59.90
2018-01-13T01:20:02.211Z,60.10
2018-01-13T01:21:02.209Z,59.90
2018-01-13T01:22:02.217Z,60.30
2018-01-13T01:23:02.216Z,58.60
2018-01-13T01:24:02.217Z,58.30
2018-01-13T01:25:02.218Z,60.20
2018-01-13T01:26:02.220Z,62.60
2018-01-13T01:27:02.223Z,62.60
2018-01-13T01:28:02.227Z,62.30
2018-01-13T01:29:02.229Z,56.80
2018-01-13T01:30:02.236Z,58.20
2018-01-13T01:31:02.281Z,60.90
2018-01-13T01:32:05.002Z,57.50
2018-01-13T01:33:03.376Z,60.00
2018-01-13T01:34:02.246Z,57.60
2018-01-13T01:35:02.244Z,60.10
2018-01-13T01:36:02.251Z,57.90
2018-01-13T01:37:02.253Z,63.20
2018-01-13T01:38:02.255Z,54.80
2018-01-13T01:39:02.254Z,58.40
2018-01-13T01:40:02.261Z,59.40
2018-01-13T01:41:02.263Z,58.50
2018-01-13T01:42:02.266Z,54.70
2018-01-13T01:43:02.267Z,57.60
2018-01-13T01:44:02.273Z,52.50
2018-01-13T01:45:02.268Z,53.40
2018-01-13T01:46:02.273Z,55.50
2018-01-13T01:47:02.279Z,63.70
2018-01-13T01:48:02.279Z,51.30
2018-01-13T01:49:02.281Z,58.50
2018-01-13T01:50:02.293Z,58.30
2018-01-13T01:51:02.287Z,58.40
2018-01-13T01:52:02.286Z,52.30
2018-01-13T01:53:02.289Z,56.20
2018-01-13T01:54:02.292Z,60.80
2018-01-13T01:55:02.297Z,55.80
2018-01-13T01:56:02.300Z,52.50
2018-01-13T01:57:02.303Z,55.40
2018-01-13T01:58:02.308Z,53.40
2018-01-13T01:59:02.310Z,52.00
2018-01-13T02:00:02.311Z,52.50
2018-01-13T02:01:02.309Z,55.50
2018-01-13T02:02:02.314Z,57.80
2018-01-13T02:03:02.320Z,52.20
2018-01-13T02:04:02.321Z,53.80
2018-01-13T02:05:02.319Z,49.20
2018-01-13T02:06:02.325Z,55.30
2018-01-13T02:07:02.330Z,55.30
2018-01-13T02:08:02.328Z,49.10
2018-01-13T02:09:02.331Z,53.00
2018-01-13T02:10:02.336Z,56.10
2018-01-13T02:11:02.336Z,48.90
2018-01-13T02:12:02.338Z,52.00
2018-01-13T02:13:02.339Z,49.10
2018-01-13T02:14:02.344Z,53.80
2018-01-13T02:15:02.344Z,51.00
2018-01-13T02:16:02.348Z,51.90
2018-01-13T02:17:02.352Z,51.80
2018-01-13T02:18:02.357Z,56.20
2018-01-13T02:19:02.360Z,51.70
2018-01-13T02:20:02.358Z,53.20
2018-01-13T02:21:02.362Z,49.80
2018-01-13T02:22:02.364Z,52.20
2018-01-13T02:23:02.463Z,52.80
2018-01-13T02:24:02.373Z,55.20
2018-01-13T02:25:02.381Z,48.60
2018-01-13T02:26:02.376Z,52.60
2018-01-13T02:27:02.383Z,54.10
2018-01-13T02:28:02.380Z,50.30
2018-01-13T02:29:02.387Z,51.50
2018-01-13T02:30:02.413Z,53.50
2018-01-13T02:31:02.391Z,49.10
2018-01-13T02:32:02.390Z,52.40
2018-01-13T02:33:02.396Z,52.60
2018-01-13T02:34:02.394Z,50.10
2018-01-13T02:35:02.397Z,52.20
2018-01-13T02:36:02.405Z,49.80
2018-01-13T02:37:02.402Z,52.00
2018-01-13T02:38:02.409Z,54.50
2018-01-13T02:39:02.408Z,49.30
2018-01-13T02:40:02.415Z,52.30
2018-01-13T02:41:02.418Z,51.40
2018-01-13T02:42:02.416Z,51.10
2018-01-13T02:43:02.423Z,54.90
2018-01-13T02:44:02.422Z,55.30
2018-01-13T02:45:02.429Z,49.30
2018-01-13T02:46:02.431Z,49.40
2018-01-13T02:47:02.431Z,51.90
2018-01-13T02:48:02.436Z,50.30
2018-01-13T02:49:02.439Z,49.40
2018-01-13T02:50:02.441Z,48.20
2018-01-13T02:51:02.440Z,50.30
2018-01-13T02:52:02.443Z,52.50
2018-01-13T02:53:02.443Z,49.10
2018-01-13T02:54:02.450Z,54.70
2018-01-13T02:55:02.454Z,50.30
2018-01-13T02:56:02.453Z,49.00
2018-01-13T02:57:03.230Z,48.20
2018-01-13T02:58:02.460Z,47.20
2018-01-13T02:59:02.468Z,50.30
2018-01-13T03:00:02.464Z,48.00
2018-01-13T03:01:02.464Z,46.10
2018-01-13T03:02:02.470Z,49.10
2018-01-13T03:03:02.471Z,47.80
2018-01-13T03:04:02.473Z,45.60
2018-01-13T03:05:02.479Z,45.80
2018-01-13T03:06:02.477Z,46.70
2018-01-13T03:07:02.483Z,50.70
2018-01-13T03:08:02.484Z,46.20
2018-01-13T03:09:02.487Z,47.20
2018-01-13T03:10:02.492Z,47.70
2018-01-13T03:11:02.494Z,45.40
2018-01-13T03:12:02.492Z,46.00
2018-01-13T03:13:02.495Z,50.90
2018-01-13T03:14:02.498Z,49.50
2018-01-13T03:15:02.506Z,51.10
2018-01-13T03:16:02.504Z,47.30
2018-01-13T03:17:03.234Z,51.90
2018-01-13T03:18:02.509Z,49.20
2018-01-13T03:19:02.515Z,51.90
2018-01-13T03:20:02.510Z,51.50
2018-01-13T03:21:02.514Z,46.50
2018-01-13T03:22:02.523Z,53.60
2018-01-13T03:23:02.544Z,49.20
2018-01-13T03:24:02.525Z,52.70
2018-01-13T03:25:02.532Z,49.30
2018-01-13T03:26:02.530Z,52.10
2018-01-13T03:27:02.536Z,46.90
2018-01-13T03:28:02.536Z,46.80
2018-01-13T03:29:02.541Z,45.80
2018-01-13T03:30:02.541Z,47.20
2018-01-13T03:31:02.545Z,49.90
2018-01-13T03:32:02.548Z,47.50
2018-01-13T03:33:02.548Z,46.90
2018-01-13T03:34:02.550Z,45.70
2018-01-13T03:35:02.557Z,44.80
2018-01-13T03:36:02.551Z,46.80
2018-01-13T03:37:02.555Z,47.50
2018-01-13T03:38:02.561Z,44.30
2018-01-13T03:39:02.573Z,45.20
2018-01-13T03:40:02.569Z,44.20
2018-01-13T03:41:02.568Z,43.80
2018-01-13T03:42:02.575Z,47.10
2018-01-13T03:43:02.573Z,46.40
2018-01-13T03:44:02.580Z,44.50
2018-01-13T03:45:02.577Z,44.00
2018-01-13T03:46:02.585Z,45.10
2018-01-13T03:47:02.584Z,42.80
2018-01-13T03:48:02.590Z,41.70
2018-01-13T03:49:02.597Z,41.90
2018-01-13T03:50:02.599Z,44.60
2018-01-13T03:51:02.596Z,44.30
2018-01-13T03:52:02.599Z,44.80
2018-01-13T03:53:02.605Z,42.10
2018-01-13T03:54:02.603Z,42.60
2018-01-13T03:55:02.604Z,45.10
2018-01-13T03:56:02.611Z,45.70
2018-01-13T03:57:02.612Z,40.60
2018-01-13T03:58:02.611Z,46.80
2018-01-13T03:59:02.616Z,47.90
2018-01-13T04:00:02.622Z,48.90
2018-01-13T04:01:02.621Z,48.30
2018-01-13T04:02:02.629Z,42.50
2018-01-13T04:03:02.628Z,44.50
2018-01-13T04:04:02.630Z,43.60
2018-01-13T04:05:02.633Z,46.10
2018-01-13T04:06:02.641Z,42.30
2018-01-13T04:07:02.638Z,51.00
2018-01-13T04:08:02.641Z,44.50
2018-01-13T04:09:02.643Z,46.90
2018-01-13T04:10:02.646Z,44.60
2018-01-13T04:11:02.647Z,45.00
2018-01-13T04:12:02.652Z,42.20
2018-01-13T04:13:02.656Z,42.40
2018-01-13T04:14:02.655Z,44.70
2018-01-13T04:15:02.658Z,43.70
2018-01-13T04:16:02.667Z,48.70
2018-01-13T04:17:02.668Z,43.90
2018-01-13T04:18:02.667Z,42.90
2018-01-13T04:19:02.667Z,42.60
2018-01-13T04:20:02.675Z,45.00
2018-01-13T04:21:02.680Z,42.30
2018-01-13T04:22:02.676Z,44.70
2018-01-13T04:23:02.690Z,43.90
2018-01-13T04:24:02.686Z,43.00
2018-01-13T04:25:02.688Z,40.10
2018-01-13T04:26:02.688Z,43.50
2018-01-13T04:27:02.692Z,43.30
2018-01-13T04:28:02.697Z,43.60
2018-01-13T04:29:02.697Z,43.10
2018-01-13T04:30:02.699Z,42.40
2018-01-13T04:31:02.709Z,41.50
2018-01-13T04:32:02.704Z,40.10
2018-01-13T04:33:02.707Z,44.20
2018-01-13T04:34:02.712Z,46.60
2018-01-13T04:35:02.711Z,46.20
2018-01-13T04:36:02.718Z,43.40
2018-01-13T04:37:02.716Z,43.90
2018-01-13T04:38:02.722Z,50.00
2018-01-13T04:39:02.720Z,49.50
2018-01-13T04:40:02.764Z,47.50
2018-01-13T04:41:02.730Z,51.10
2018-01-13T04:42:02.732Z,46.50
2018-01-13T04:43:02.733Z,45.40
2018-01-13T04:44:02.740Z,45.60
2018-01-13T04:45:02.743Z,45.40
2018-01-13T04:46:02.746Z,44.60
2018-01-13T04:47:02.748Z,46.40
2018-01-13T04:48:02.746Z,51.30
2018-01-13T04:49:02.752Z,53.40
2018-01-13T04:50:02.751Z,50.10
2018-01-13T04:51:02.752Z,47.00
2018-01-13T04:52:02.762Z,50.70
2018-01-13T04:53:02.764Z,49.40
2018-01-13T04:54:02.760Z,54.00
2018-01-13T04:55:02.767Z,49.80
2018-01-13T04:56:02.771Z,49.40
2018-01-13T04:57:02.770Z,46.40
2018-01-13T04:58:02.778Z,46.50
2018-01-13T04:59:02.777Z,48.90
2018-01-13T05:00:02.785Z,49.70
2018-01-13T05:01:02.784Z,46.70
2018-01-13T05:02:02.783Z,45.70
2018-01-13T05:03:02.788Z,49.70
2018-01-13T05:04:02.791Z,46.90
2018-01-13T05:05:02.793Z,46.00
2018-01-13T05:06:02.794Z,47.00
2018-01-13T05:07:02.796Z,49.30
2018-01-13T05:08:02.802Z,47.20
2018-01-13T05:09:02.804Z,56.10
2018-01-13T05:10:02.803Z,50.60
2018-01-13T05:11:02.806Z,43.10
2018-01-13T05:12:02.814Z,45.60
2018-01-13T05:13:02.811Z,47.60
2018-01-13T05:14:02.816Z,49.80
2018-01-13T05:15:02.814Z,50.20
2018-01-13T05:16:02.825Z,50.20
2018-01-13T05:17:02.826Z,46.70
2018-01-13T05:18:02.823Z,46.20
2018-01-13T05:19:02.825Z,45.60
2018-01-13T05:20:02.834Z,46.80
2018-01-13T05:21:02.836Z,49.30
2018-01-13T05:22:03.941Z,47.00
2018-01-13T05:23:02.841Z,45.50
2018-01-13T05:24:02.841Z,43.70
2018-01-13T05:25:02.847Z,44.30
2018-01-13T05:26:02.852Z,45.20
2018-01-13T05:27:02.854Z,46.00
2018-01-13T05:28:02.852Z,45.40
2018-01-13T05:29:02.915Z,47.70
2018-01-13T05:30:02.862Z,47.00
2018-01-13T05:31:02.862Z,47.10
2018-01-13T05:32:02.874Z,48.80
2018-01-13T05:33:02.867Z,46.80
2018-01-13T05:34:02.867Z,46.80
2018-01-13T05:35:02.872Z,45.10
2018-01-13T05:36:02.872Z,42.30
2018-01-13T05:37:02.890Z,42.90
2018-01-13T05:38:02.879Z,43.50
2018-01-13T05:39:02.881Z,46.90
2018-01-13T05:40:02.887Z,43.00
2018-01-13T05:41:02.888Z,42.60
2018-01-13T05:42:02.893Z,44.70
2018-01-13T05:43:02.891Z,46.10
2018-01-13T05:44:02.899Z,47.20
2018-01-13T05:45:02.899Z,41.60
2018-01-13T05:46:02.899Z,43.30
2018-01-13T05:47:02.908Z,41.50
2018-01-13T05:48:02.906Z,40.50
2018-01-13T05:49:02.909Z,45.40
2018-01-13T05:50:02.912Z,40.20
2018-01-13T05:51:02.918Z,41.90
2018-01-13T05:52:02.916Z,45.60
2018-01-13T05:53:02.922Z,46.60
2018-01-13T05:54:02.929Z,47.30
2018-01-13T05:55:02.924Z,48.20
2018-01-13T05:56:02.928Z,43.80
2018-01-13T05:57:02.934Z,48.20
2018-01-13T05:58:02.929Z,47.40
2018-01-13T05:59:02.938Z,53.80
2018-01-13T06:00:02.943Z,46.70
2018-01-13T06:01:02.940Z,47.90
2018-01-13T06:02:02.949Z,47.30
2018-01-13T06:03:02.956Z,47.20
2018-01-13T06:04:02.960Z,48.80
2018-01-13T06:05:02.956Z,52.70
2018-01-13T06:06:02.957Z,46.50
2018-01-13T06:07:02.962Z,49.90
2018-01-13T06:08:02.965Z,50.00
2018-01-13T06:09:02.969Z,51.40
2018-01-13T06:10:02.972Z,45.80
2018-01-13T06:11:02.970Z,45.80
2018-01-13T06:12:02.976Z,48.70
2018-01-13T06:13:02.976Z,48.50
2018-01-13T06:14:02.992Z,49.50
2018-01-13T06:15:02.987Z,51.70
2018-01-13T06:16:02.987Z,50.20
2018-01-13T06:17:02.988Z,46.00
2018-01-13T06:18:02.992Z,50.80
2018-01-13T06:19:02.988Z,50.50
2018-01-13T06:20:03.000Z,50.70
2018-01-13T06:21:02.998Z,49.50
2018-01-13T06:22:03.003Z,52.60
2018-01-13T06:23:03.004Z,51.40
2018-01-13T06:24:03.157Z,54.70
2018-01-13T06:25:03.011Z,50.40
2018-01-13T06:26:03.016Z,49.80
2018-01-13T06:27:03.019Z,49.80
2018-01-13T06:28:03.016Z,51.80
2018-01-13T06:29:03.023Z,51.40
2018-01-13T06:30:03.025Z,52.00
2018-01-13T06:31:03.027Z,53.70
2018-01-13T06:32:03.030Z,52.10
2018-01-13T06:33:03.035Z,55.20
2018-01-13T06:34:03.031Z,51.60
2018-01-13T06:35:03.042Z,53.00
2018-01-13T06:36:03.041Z,51.60
2018-01-13T06:37:03.041Z,56.90
2018-01-13T06:38:03.048Z,52.50
2018-01-13T06:39:03.050Z,53.40
2018-01-13T06:40:03.048Z,50.10
2018-01-13T06:41:03.053Z,52.40
2018-01-13T06:42:03.062Z,53.40
2018-01-13T06:43:03.059Z,52.80
2018-01-13T06:44:03.063Z,55.10
2018-01-13T06:45:03.065Z,51.70
2018-01-13T06:46:03.067Z,54.60
2018-01-13T06:47:03.073Z,56.40
2018-01-13T06:48:03.076Z,53.20
2018-01-13T06:49:03.072Z,60.90
2018-01-13T06:50:03.081Z,53.10
2018-01-13T06:51:03.085Z,52.60
2018-01-13T06:52:03.087Z,53.50
2018-01-13T06:53:03.086Z,53.80
2018-01-13T06:54:03.091Z,55.20
2018-01-13T06:55:03.092Z,54.20
2018-01-13T06:56:03.094Z,59.80
2018-01-13T06:57:03.100Z,52.20
2018-01-13T06:58:03.106Z,57.10
2018-01-13T06:59:03.110Z,55.90
2018-01-13T07:00:03.145Z,54.00
2018-01-13T07:01:03.126Z,55.80
2018-01-13T07:02:03.118Z,54.30
2018-01-13T07:03:03.167Z,58.70
2018-01-13T07:04:03.117Z,59.40
2018-01-13T07:05:03.179Z,56.50
2018-01-13T07:06:03.119Z,57.30
2018-01-13T07:07:03.146Z,53.90
2018-01-13T07:08:03.125Z,63.10
2018-01-13T07:09:03.212Z,55.60
2018-01-13T07:10:03.131Z,58.70
2018-01-13T07:11:03.135Z,56.80
2018-01-13T07:12:03.135Z,55.40
2018-01-13T07:13:03.159Z,54.40
2018-01-13T07:14:03.140Z,55.10
2018-01-13T07:15:03.147Z,57.90
2018-01-13T07:16:03.162Z,61.30
2018-01-13T07:17:03.202Z,52.80
2018-01-13T07:18:03.151Z,60.40
2018-01-13T07:19:03.203Z,59.80
2018-01-13T07:20:03.178Z,53.00
2018-01-13T07:21:03.167Z,62.40
2018-01-13T07:22:03.164Z,59.60
2018-01-13T07:23:03.164Z,58.60
2018-01-13T07:24:03.195Z,54.90
2018-01-13T07:25:03.169Z,58.70
2018-01-13T07:26:03.178Z,60.40
2018-01-13T07:27:03.174Z,54.50
2018-01-13T07:28:03.188Z,58.80
2018-01-13T07:29:03.181Z,58.80
2018-01-13T07:30:03.186Z,53.50
2018-01-13T07:31:03.184Z,57.90
2018-01-13T07:32:03.192Z,56.30
2018-01-13T07:33:03.188Z,55.10
2018-01-13T07:34:03.811Z,54.80
2018-01-13T07:35:03.254Z,54.30
2018-01-13T07:36:03.200Z,54.60
2018-01-13T07:37:03.829Z,58.40
2018-01-13T07:38:03.253Z,52.50
2018-01-13T07:39:03.205Z,56.10
2018-01-13T07:40:03.228Z,51.80
2018-01-13T07:41:03.234Z,54.00
2018-01-13T07:42:03.222Z,55.10
2018-01-13T07:43:03.218Z,52.70
2018-01-13T07:44:03.218Z,53.90
2018-01-13T07:45:03.226Z,53.20
2018-01-13T07:46:03.224Z,53.60
2018-01-13T07:47:03.226Z,53.10
2018-01-13T07:48:03.232Z,53.70
2018-01-13T07:49:03.234Z,48.50
2018-01-13T07:50:03.233Z,53.60
2018-01-13T07:51:03.232Z,52.70
2018-01-13T07:52:03.238Z,53.20
2018-01-13T07:53:03.239Z,53.20
2018-01-13T07:54:03.246Z,51.40
2018-01-13T07:55:03.245Z,51.60
2018-01-13T07:56:03.251Z,55.40
2018-01-13T07:57:03.297Z,50.50
2018-01-13T07:58:03.248Z,50.50
2018-01-13T07:59:03.256Z,53.10
2018-01-13T08:00:03.301Z,49.10
2018-01-13T08:01:03.285Z,51.50
2018-01-13T08:02:03.264Z,49.30
2018-01-13T08:03:03.268Z,50.00
2018-01-13T08:04:03.292Z,48.00
2018-01-13T08:05:03.275Z,49.20
2018-01-13T08:06:03.270Z,47.50
2018-01-13T08:07:03.279Z,47.40
2018-01-13T08:08:03.278Z,49.20
2018-01-13T08:09:03.311Z,50.60
2018-01-13T08:10:03.343Z,51.10
2018-01-13T08:11:03.288Z,48.90
2018-01-13T08:12:03.317Z,46.40
2018-01-13T08:13:03.292Z,48.40
2018-01-13T08:14:03.311Z,47.20
2018-01-13T08:15:03.308Z,47.40
2018-01-13T08:16:03.302Z,47.60
2018-01-13T08:17:03.314Z,47.20
2018-01-13T08:18:03.337Z,47.40
2018-01-13T08:19:03.341Z,45.50
2018-01-13T08:20:03.315Z,46.40
2018-01-13T08:21:03.351Z,46.40
2018-01-13T08:22:05.305Z,44.30
2018-01-13T08:23:03.379Z,42.80
2018-01-13T08:24:04.359Z,43.60
2018-01-13T08:25:03.329Z,44.70
2018-01-13T08:26:03.326Z,45.30
2018-01-13T08:27:03.322Z,43.70
2018-01-13T08:28:03.334Z,43.00
2018-01-13T08:29:03.333Z,42.20
2018-01-13T08:30:03.379Z,42.50
2018-01-13T08:31:03.370Z,42.90
2018-01-13T08:32:03.366Z,42.80
2018-01-13T08:33:03.346Z,42.30
2018-01-13T08:34:04.765Z,40.10
2018-01-13T08:35:03.349Z,41.50
2018-01-13T08:36:03.355Z,42.30
2018-01-13T08:37:03.358Z,43.80
2018-01-13T08:38:03.356Z,42.70
2018-01-13T08:39:03.357Z,41.80
2018-01-13T08:40:03.365Z,41.40
2018-01-13T08:41:03.363Z,44.70
2018-01-13T08:42:03.411Z,43.60
2018-01-13T08:43:03.369Z,41.40
2018-01-13T08:44:03.397Z,43.40
2018-01-13T08:45:03.454Z,40.10
2018-01-13T08:46:03.395Z,41.00
2018-01-13T08:47:03.423Z,40.30
2018-01-13T08:48:03.385Z,38.50
2018-01-13T08:49:03.386Z,37.10
2018-01-13T08:50:03.428Z,40.30
2018-01-13T08:51:03.401Z,41.20
2018-01-13T08:52:03.426Z,42.00
2018-01-13T08:53:03.420Z,39.80
2018-01-13T08:54:03.405Z,42.00
2018-01-13T08:55:03.439Z,41.90
2018-01-13T08:56:03.406Z,37.10
2018-01-13T08:57:03.413Z,42.70
2018-01-13T08:58:03.415Z,40.80
2018-01-13T08:59:03.414Z,39.00
2018-01-13T09:00:03.422Z,43.00
2018-01-13T09:01:03.422Z,41.20
2018-01-13T09:02:03.425Z,38.10
2018-01-13T09:03:03.431Z,41.50
2018-01-13T09:04:03.434Z,37.70
2018-01-13T09:05:03.435Z,41.10
2018-01-13T09:06:03.436Z,39.80
2018-01-13T09:07:03.436Z,40.80
2018-01-13T09:08:03.444Z,38.60
2018-01-13T09:09:03.448Z,40.10
2018-01-13T09:10:03.445Z,40.00
2018-01-13T09:11:03.446Z,38.70
2018-01-13T09:12:03.453Z,40.20
2018-01-13T09:13:03.466Z,41.20
2018-01-13T09:14:03.465Z,37.90
2018-01-13T09:15:03.470Z,40.70
2018-01-13T09:16:03.465Z,39.00
2018-01-13T09:17:03.492Z,38.00
2018-01-13T09:18:03.474Z,38.90
2018-01-13T09:19:03.476Z,38.90
2018-01-13T09:20:03.478Z,38.80
2018-01-13T09:21:03.481Z,38.90
2018-01-13T09:22:03.482Z,36.30
2018-01-13T09:23:03.488Z,38.20
2018-01-13T09:24:03.488Z,37.50
2018-01-13T09:25:03.493Z,37.40
2018-01-13T09:26:03.494Z,38.70
2018-01-13T09:27:03.500Z,38.40
2018-01-13T09:28:03.502Z,39.30
2018-01-13T09:29:03.505Z,39.80
2018-01-13T09:30:03.510Z,39.40
2018-01-13T09:31:03.509Z,40.60
2018-01-13T09:32:03.519Z,40.10
2018-01-13T09:33:03.519Z,39.30
2018-01-13T09:34:03.524Z,37.80
2018-01-13T09:35:03.524Z,37.70
2018-01-13T09:36:03.527Z,37.10
2018-01-13T09:37:03.528Z,37.80
2018-01-13T09:38:03.534Z,39.80
2018-01-13T09:39:03.533Z,38.40
2018-01-13T09:40:03.540Z,39.30
2018-01-13T09:41:03.539Z,38.00
2018-01-13T09:42:03.546Z,37.90
2018-01-13T09:43:03.547Z,38.90
2018-01-13T09:44:03.554Z,37.10
2018-01-13T09:45:03.563Z,40.00
2018-01-13T09:46:03.553Z,38.00
2018-01-13T09:47:03.557Z,36.10
2018-01-13T09:48:03.565Z,37.80
2018-01-13T09:49:03.567Z,37.30
2018-01-13T09:50:03.567Z,34.80
2018-01-13T09:51:03.571Z,40.20
2018-01-13T09:52:03.583Z,37.70
2018-01-13T09:53:03.573Z,37.60
2018-01-13T09:54:03.584Z,36.90
2018-01-13T09:55:03.588Z,38.00
2018-01-13T09:56:03.585Z,35.70
2018-01-13T09:57:03.590Z,35.90
2018-01-13T09:58:03.596Z,38.30
2018-01-13T09:59:03.598Z,37.70
2018-01-13T10:00:03.600Z,38.10
2018-01-13T10:01:03.604Z,34.30
2018-01-13T10:02:03.603Z,32.40
2018-01-13T10:03:03.607Z,36.00
2018-01-13T10:04:03.614Z,35.50
2018-01-13T10:05:03.621Z,35.30
2018-01-13T10:06:03.617Z,32.40
2018-01-13T10:07:03.622Z,34.10
2018-01-13T10:08:03.627Z,33.40
2018-01-13T10:09:03.629Z,30.60
2018-01-13T10:10:03.629Z,32.10
2018-01-13T10:11:03.633Z,30.10
2018-01-13T10:12:03.638Z,34.20
2018-01-13T10:13:03.641Z,30.40
2018-01-13T10:14:03.640Z,33.10
2018-01-13T10:15:03.666Z,33.10
2018-01-13T10:16:03.659Z,32.30
2018-01-13T10:17:03.660Z,32.10
2018-01-13T10:18:03.655Z,32.00
2018-01-13T10:19:03.662Z,34.90
2018-01-13T10:20:03.660Z,32.40
2018-01-13T10:21:03.666Z,31.20
2018-01-13T10:22:03.669Z,31.00
2018-01-13T10:23:03.681Z,29.60
2018-01-13T10:24:03.676Z,32.90
2018-01-13T10:25:03.682Z,31.80
2018-01-13T10:26:03.681Z,29.70
2018-01-13T10:27:03.689Z,32.50
2018-01-13T10:28:03.721Z,32.00
2018-01-13T10:29:03.696Z,35.10
2018-01-13T10:30:03.696Z,29.90
2018-01-13T10:31:03.699Z,31.50
2018-01-13T10:32:03.700Z,35.40
2018-01-13T10:33:03.706Z,33.80
2018-01-13T10:34:03.709Z,33.20
2018-01-13T10:35:03.717Z,32.90
2018-01-13T10:36:04.338Z,33.40
2018-01-13T10:37:03.718Z,32.70
2018-01-13T10:38:03.723Z,32.30
2018-01-13T10:39:03.727Z,34.50
2018-01-13T10:40:03.733Z,34.00
2018-01-13T10:41:03.734Z,30.90
2018-01-13T10:42:03.741Z,34.40
2018-01-13T10:43:03.739Z,31.50
2018-01-13T10:44:03.748Z,34.50
2018-01-13T10:45:03.747Z,31.90
2018-01-13T10:46:03.753Z,32.10
2018-01-13T10:47:03.753Z,32.80
2018-01-13T10:48:03.761Z,30.60
2018-01-13T10:49:03.763Z,32.60
2018-01-13T10:50:03.764Z,32.80
2018-01-13T10:51:03.769Z,30.50
2018-01-13T10:52:03.775Z,30.40
2018-01-13T10:53:03.779Z,30.10
2018-01-13T10:54:03.775Z,30.40
2018-01-13T10:55:03.780Z,30.80
2018-01-13T10:56:03.788Z,32.00
2018-01-13T10:57:03.787Z,31.20
2018-01-13T10:58:03.795Z,28.10
2018-01-13T10:59:03.803Z,28.20
2018-01-13T11:00:03.804Z,28.40
2018-01-13T11:01:03.803Z,29.90
2018-01-13T11:02:03.807Z,31.20
2018-01-13T11:03:03.816Z,30.10
2018-01-13T11:04:03.817Z,29.50
2018-01-13T11:05:03.821Z,29.90
2018-01-13T11:06:03.822Z,29.10
2018-01-13T11:07:03.829Z,28.90
2018-01-13T11:08:03.831Z,30.00
2018-01-13T11:09:03.830Z,29.40
2018-01-13T11:10:03.838Z,29.00
2018-01-13T11:11:03.843Z,31.50
2018-01-13T11:12:03.844Z,30.00
2018-01-13T11:13:03.849Z,29.90
2018-01-13T11:14:03.849Z,31.20
2018-01-13T11:15:03.855Z,31.20
2018-01-13T11:16:03.864Z,30.50
2018-01-13T11:17:03.864Z,29.90
2018-01-13T11:18:03.881Z,29.40
2018-01-13T11:19:03.870Z,27.70
2018-01-13T11:20:03.889Z,27.40
2018-01-13T11:21:03.876Z,28.40
2018-01-13T11:22:03.883Z,27.70
2018-01-13T11:23:03.883Z,30.10
2018-01-13T11:24:06.766Z,28.70
2018-01-13T11:25:03.897Z,28.60
2018-01-13T11:26:03.893Z,28.30
2018-01-13T11:27:03.898Z,31.10
2018-01-13T11:28:03.902Z,29.50
2018-01-13T11:29:03.908Z,28.80
2018-01-13T11:30:03.908Z,28.40
2018-01-13T11:31:03.918Z,29.90
2018-01-13T11:32:03.916Z,30.90
2018-01-13T11:33:03.923Z,32.20
2018-01-13T11:34:03.922Z,30.90
2018-01-13T11:35:03.929Z,30.50
2018-01-13T11:36:03.932Z,29.90
2018-01-13T11:37:03.934Z,27.90
2018-01-13T11:38:03.946Z,30.70
2018-01-13T11:39:03.944Z,29.40
2018-01-13T11:40:03.945Z,30.50
2018-01-13T11:41:03.952Z,29.30
2018-01-13T11:42:03.952Z,28.50
2018-01-13T11:43:03.960Z,29.80
2018-01-13T11:44:03.960Z,28.00
2018-01-13T11:45:03.976Z,26.80
2018-01-13T11:46:03.978Z,27.50
2018-01-13T11:47:03.970Z,29.20
2018-01-13T11:48:03.977Z,27.60
2018-01-13T11:49:03.975Z,28.70
2018-01-13T11:50:03.990Z,27.10
2018-01-13T11:51:03.981Z,30.90
2018-01-13T11:52:03.992Z,31.70
2018-01-13T11:53:03.993Z,29.60
2018-01-13T11:54:03.996Z,29.00
2018-01-13T11:55:04.007Z,28.00
2018-01-13T11:56:04.007Z,27.60
2018-01-13T11:57:04.006Z,28.90
2018-01-13T11:58:04.013Z,30.00
2018-01-13T11:59:04.014Z,28.90
2018-01-13T12:00:04.020Z,28.50
2018-01-13T12:01:04.021Z,28.60
2018-01-13T12:02:04.027Z,26.40
2018-01-13T12:03:04.039Z,26.00
2018-01-13T12:04:04.037Z,27.20
2018-01-13T12:05:04.038Z,27.60
2018-01-13T12:06:04.041Z,27.30
2018-01-13T12:07:04.045Z,29.50
2018-01-13T12:08:04.047Z,25.50
2018-01-13T12:09:04.056Z,26.10
2018-01-13T12:10:04.057Z,28.30
2018-01-13T12:11:04.057Z,29.00
2018-01-13T12:12:04.063Z,26.10
2018-01-13T12:13:04.063Z,28.60
2018-01-13T12:14:04.068Z,28.50
2018-01-13T12:15:04.078Z,26.20
2018-01-13T12:16:04.075Z,29.00
2018-01-13T12:17:04.087Z,26.20
2018-01-13T12:18:04.080Z,27.40
2018-01-13T12:19:04.084Z,26.00
2018-01-13T12:20:04.235Z,27.10
2018-01-13T12:21:04.094Z,28.60
2018-01-13T12:22:04.095Z,29.80
2018-01-13T12:23:04.096Z,31.90
2018-01-13T12:24:04.105Z,29.50
2018-01-13T12:25:04.108Z,28.00
2018-01-13T12:26:04.108Z,28.60
2018-01-13T12:27:04.114Z,29.00
2018-01-13T12:28:04.118Z,28.10
2018-01-13T12:29:04.122Z,30.40
2018-01-13T12:30:04.122Z,28.10
2018-01-13T12:31:04.136Z,29.10
2018-01-13T12:32:04.129Z,28.10
2018-01-13T12:33:04.135Z,27.70
2018-01-13T12:34:04.138Z,26.40
2018-01-13T12:35:04.153Z,30.30
2018-01-13T12:36:04.157Z,29.60
2018-01-13T12:37:04.145Z,29.60
2018-01-13T12:38:04.153Z,27.90
2018-01-13T12:39:04.170Z,28.70
2018-01-13T12:40:04.160Z,29.50
2018-01-13T12:41:04.168Z,33.00
2018-01-13T12:42:04.161Z,32.20
2018-01-13T12:43:04.209Z,27.50
2018-01-13T12:44:04.170Z,30.70
2018-01-13T12:45:04.177Z,29.50
2018-01-13T12:46:04.176Z,29.20
2018-01-13T12:47:04.182Z,31.10
2018-01-13T12:48:04.189Z,29.50
2018-01-13T12:49:04.191Z,27.90
2018-01-13T12:50:04.193Z,29.70
2018-01-13T12:51:04.204Z,27.80
2018-01-13T12:52:04.200Z,29.50